Time;durP1;ratioP1;P1;durP2;ratioP2;P2;SDS_P1;SDS_P2;PMS_P1;PMS_P2;Temp;Humidity;BMP_temperature;BMP_pressure;BME280_temperature;BME280_humidity;BME280_pressure;Samples;Min_cycle;Max_cycle;Signal;HPM_P1;HPM_P2
2022/06/01 00:00:54;;;;;;;;;;;12.80;99.90;;;;;;5074873;28;19909;-84
2022/06/01 00:03:20;;;;;;;;;;;12.80;99.90;;;;;;5056839;28;20042;-83
2022/06/01 00:05:46;;;;;;;;;;;12.50;99.90;;;;;;5074689;28;19950;-85
2022/06/01 00:08:11;;;;;;;;;;;12.50;99.90;;;;;;5056670;28;20288;-81
2022/06/01 00:10:37;;;;;;;;;;;12.80;99.90;;;;;;5075001;28;19913;-84
2022/06/01 00:13:03;;;;;;;;;;;12.70;99.90;;;;;;5074470;28;19920;-83
2022/06/01 00:15:30;;;;;;;;;;;12.70;99.90;;;;;;5074513;28;19912;-81
2022/06/01 00:17:57;;;;;;;;;;;12.70;99.90;;;;;;5074580;28;20432;-84
2022/06/01 00:20:22;;;;;;;;;;;12.60;99.90;;;;;;5074419;28;19913;-81
2022/06/01 00:22:48;;;;;;;;;;;12.20;99.90;;;;;;5056779;28;19930;-83
2022/06/01 00:25:14;;;;;;;;;;;11.90;99.90;;;;;;5074426;28;20028;-82
2022/06/01 00:27:40;;;;;;;;;;;11.90;99.90;;;;;;5074913;28;20299;-83
2022/06/01 00:30:06;;;;;;;;;;;12.00;99.90;;;;;;5073757;28;19909;-84
2022/06/01 00:32:32;;;;;;;;;;;12.10;99.90;;;;;;5074292;28;19908;-82
2022/06/01 00:35:02;;;;;;;;;;;12.50;99.90;;;;;;5074345;28;19920;-83
2022/06/01 00:37:27;;;;;;;;;;;12.50;99.90;;;;;;5073974;28;19920;-82
2022/06/01 00:39:53;;;;;;;;;;;12.40;99.90;;;;;;5074136;28;20383;-83
2022/06/01 00:42:20;;;;;;;;;;;12.30;99.90;;;;;;5074632;28;20396;-82
2022/06/01 00:44:47;;;;;;;;;;;12.20;99.90;;;;;;5074341;28;19916;-84
2022/06/01 00:47:15;;;;;;;;;;;12.00;99.90;;;;;;5074687;28;20413;-84
2022/06/01 00:49:41;;;;;;;;;;;12.10;99.90;;;;;;5056089;28;19923;-83
2022/06/01 00:52:07;;;;;;;;;;;12.40;99.90;;;;;;5055995;28;20300;-82
2022/06/01 00:54:33;;;;;;;;;;;12.40;99.90;;;;;;5074581;28;19916;-83
2022/06/01 00:57:03;;;;;;;;;;;12.20;99.90;;;;;;5056054;28;19909;-83
2022/06/01 00:59:33;;;;;;;;;;;12.20;99.90;;;;;;5056100;28;19915;-84
2022/06/01 01:01:59;;;;;;;;;;;12.20;99.90;;;;;;5074475;28;20331;-83
2022/06/01 01:04:26;;;;;;;;;;;11.90;99.90;;;;;;5073862;28;19909;-84
2022/06/01 01:06:51;;;;;;;;;;;11.80;99.90;;;;;;5073996;28;20007;-84
2022/06/01 01:09:18;;;;;;;;;;;11.70;99.90;;;;;;5074082;28;19947;-81
2022/06/01 01:11:49;;;;;;;;;;;11.80;99.90;;;;;;5055823;28;19958;-82
2022/06/01 01:14:16;;;;;;;;;;;11.70;99.90;;;;;;5074258;28;19912;-82
2022/06/01 01:16:42;;;;;;;;;;;11.80;99.90;;;;;;5055992;28;19915;-82
2022/06/01 01:19:30;;;;;;;;;;;11.70;99.90;;;;;;5074085;28;19908;-82
2022/06/01 01:21:56;;;;;;;;;;;11.40;99.90;;;;;;5073987;28;19912;-81
2022/06/01 01:24:37;;;;;;;;;;;11.50;99.90;;;;;;5056107;28;19908;-82
2022/06/01 01:27:03;;;;;;;;;;;11.50;99.90;;;;;;5073973;28;19944;-83
2022/06/01 01:29:40;;;;;;;;;;;11.50;99.90;;;;;;5074011;28;20332;-82
2022/06/01 01:32:07;;;;;;;;;;;11.50;99.90;;;;;;5074146;28;19947;-82
2022/06/01 01:34:33;;;;;;;;;;;11.60;99.90;;;;;;5074096;28;20343;-84
2022/06/01 01:37:01;;;;;;;;;;;11.50;99.90;;;;;;5074059;28;19921;-83
2022/06/01 01:39:28;;;;;;;;;;;11.50;99.90;;;;;;5080913;28;19908;-82
2022/06/01 01:41:54;;;;;;;;;;;11.50;99.90;;;;;;5085468;28;19999;-82
2022/06/01 01:44:38;;;;;;;;;;;11.40;99.90;;;;;;5067854;28;19943;-80
2022/06/01 01:47:04;;;;;;;;;;;11.40;99.90;;;;;;5087527;28;19908;-81
2022/06/01 01:49:32;;;;;;;;;;;11.20;99.90;;;;;;5086279;28;20395;-81
2022/06/01 01:52:00;;;;;;;;;;;11.30;99.90;;;;;;5087351;28;19931;-82
2022/06/01 01:54:26;;;;;;;;;;;11.50;99.90;;;;;;5078220;28;19912;-82
2022/06/01 01:57:09;;;;;;;;;;;11.50;99.90;;;;;;5077179;28;19916;-83
2022/06/01 01:59:41;;;;;;;;;;;11.40;99.90;;;;;;5077198;28;19909;-83
2022/06/01 02:02:10;;;;;;;;;;;11.30;99.90;;;;;;5077155;28;19952;-84
2022/06/01 02:07:29;;;;;;;;;;;11.10;99.90;;;;;;5076905;28;19989;-82
2022/06/01 02:12:42;;;;;;;;;;;11.30;99.90;;;;;;5077218;28;19915;-82
2022/06/01 02:15:12;;;;;;;;;;;11.50;99.90;;;;;;5058755;28;20373;-83
2022/06/01 02:17:48;;;;;;;;;;;11.30;99.90;;;;;;5058965;28;20367;-84
2022/06/01 02:20:18;;;;;;;;;;;11.10;99.90;;;;;;5058740;28;19908;-83
2022/06/01 02:22:43;;;;;;;;;;;11.00;99.90;;;;;;5076715;28;19913;-83
2022/06/01 02:25:11;;;;;;;;;;;11.00;99.90;;;;;;5077098;28;19909;-83
2022/06/01 02:27:37;;;;;;;;;;;10.90;99.90;;;;;;5076687;28;20360;-82
2022/06/01 02:30:07;;;;;;;;;;;10.90;99.90;;;;;;5076808;28;19919;-83
2022/06/01 02:32:33;;;;;;;;;;;10.80;99.90;;;;;;5076838;28;20391;-83
2022/06/01 02:35:02;;;;;;;;;;;10.70;99.90;;;;;;5076792;28;19916;-82
2022/06/01 02:37:29;;;;;;;;;;;10.60;99.90;;;;;;5058271;28;20012;-81
2022/06/01 02:39:55;;;;;;;;;;;10.90;99.90;;;;;;5076515;28;19915;-81
2022/06/01 02:42:28;;;;;;;;;;;10.90;99.90;;;;;;5076515;28;19909;-80
2022/06/01 02:44:54;;;;;;;;;;;10.80;99.90;;;;;;5076734;28;20373;-82
2022/06/01 02:47:19;;;;;;;;;;;10.60;99.90;;;;;;5058404;28;19919;-84
2022/06/01 02:49:45;;;;;;;;;;;10.50;99.90;;;;;;5076369;28;19908;-84
2022/06/01 02:52:11;;;;;;;;;;;10.40;99.90;;;;;;5058328;28;19908;-82
2022/06/01 02:54:36;;;;;;;;;;;10.40;99.90;;;;;;5075098;28;19913;-84
2022/06/01 02:57:02;;;;;;;;;;;10.50;99.90;;;;;;5076200;28;19915;-82
2022/06/01 02:59:27;;;;;;;;;;;10.60;99.90;;;;;;5076204;28;19908;-83
2022/06/01 03:01:53;;;;;;;;;;;10.80;99.90;;;;;;5076279;28;20444;-84
2022/06/01 03:04:18;;;;;;;;;;;10.80;99.90;;;;;;5076013;28;19938;-84
2022/06/01 03:06:44;;;;;;;;;;;10.70;99.90;;;;;;5075979;28;20011;-81
2022/06/01 03:09:11;;;;;;;;;;;10.60;99.90;;;;;;5076301;28;19908;-83
2022/06/01 03:11:37;;;;;;;;;;;10.20;99.90;;;;;;5076099;28;19915;-84
2022/06/01 03:14:02;;;;;;;;;;;9.70;99.90;;;;;;5075834;28;20023;-81
2022/06/01 03:16:28;;;;;;;;;;;9.80;99.90;;;;;;5075918;28;19944;-83
2022/06/01 03:18:53;;;;;;;;;;;9.90;99.90;;;;;;5075935;28;20376;-81
2022/06/01 03:21:19;;;;;;;;;;;10.00;99.90;;;;;;5075508;28;19919;-81
2022/06/01 03:23:45;;;;;;;;;;;10.10;99.90;;;;;;5075737;28;19909;-83
2022/06/01 03:26:12;;;;;;;;;;;10.00;99.90;;;;;;5075702;28;19998;-81
2022/06/01 03:28:39;;;;;;;;;;;10.00;99.90;;;;;;5075603;28;19962;-83
2022/06/01 03:31:06;;;;;;;;;;;10.10;99.90;;;;;;5075329;28;19909;-83
2022/06/01 03:33:32;;;;;;;;;;;10.10;99.90;;;;;;5075712;28;20292;-84
2022/06/01 03:35:57;;;;;;;;;;;10.30;99.90;;;;;;5075175;28;19962;-83
2022/06/01 03:38:23;;;;;;;;;;;10.30;99.90;;;;;;5075638;28;19913;-83
2022/06/01 03:40:49;;;;;;;;;;;10.30;99.90;;;;;;5075502;28;20003;-83
2022/06/01 03:43:14;;;;;;;;;;;10.20;99.90;;;;;;5075305;28;19909;-82
2022/06/01 03:45:55;;;;;;;;;;;10.10;99.90;;;;;;5075595;28;19923;-83
2022/06/01 03:48:21;;;;;;;;;;;10.10;99.90;;;;;;5075199;28;19940;-84
2022/06/01 03:50:47;;;;;;;;;;;10.10;99.90;;;;;;5075122;28;20372;-83
2022/06/01 03:53:13;;;;;;;;;;;10.20;99.90;;;;;;5056970;28;20007;-84
2022/06/01 03:55:39;;;;;;;;;;;10.30;99.90;;;;;;5075292;28;19915;-81
2022/06/01 03:58:04;;;;;;;;;;;10.30;99.90;;;;;;5074933;28;20292;-83
2022/06/01 04:00:30;;;;;;;;;;;10.10;99.90;;;;;;5075248;28;19967;-83
2022/06/01 04:02:56;;;;;;;;;;;10.10;99.90;;;;;;5074728;28;19908;-82
2022/06/01 04:05:22;;;;;;;;;;;10.10;99.90;;;;;;5074567;28;19908;-84
2022/06/01 04:07:49;;;;;;;;;;;10.10;99.90;;;;;;5056985;28;19916;-82
2022/06/01 04:10:15;;;;;;;;;;;10.10;99.90;;;;;;5056662;28;20406;-84
2022/06/01 04:12:40;;;;;;;;;;;10.10;99.90;;;;;;5074650;28;20364;-83
2022/06/01 04:15:08;;;;;;;;;;;9.90;99.90;;;;;;5074496;28;19962;-82
2022/06/01 04:17:34;;;;;;;;;;;9.80;99.90;;;;;;5074827;28;19912;-84
2022/06/01 04:19:59;;;;;;;;;;;10.00;99.90;;;;;;5074676;28;20277;-82
2022/06/01 04:22:25;;;;;;;;;;;10.20;99.90;;;;;;5056547;28;19915;-83
2022/06/01 04:24:51;;;;;;;;;;;9.90;99.90;;;;;;5056586;28;20357;-83
2022/06/01 04:27:17;;;;;;;;;;;9.60;99.90;;;;;;5074502;28;20003;-84
2022/06/01 04:29:43;;;;;;;;;;;9.60;99.90;;;;;;5074768;28;19913;-82
2022/06/01 04:32:12;;;;;;;;;;;10.00;99.90;;;;;;5074589;28;19908;-82
2022/06/01 04:34:38;;;;;;;;;;;10.20;99.90;;;;;;5074311;28;19912;-83
2022/06/01 04:37:04;;;;;;;;;;;10.30;99.90;;;;;;5074380;28;19927;-82
2022/06/01 04:39:30;;;;;;;;;;;10.30;99.90;;;;;;5074306;28;19909;-82
2022/06/01 04:41:56;;;;;;;;;;;10.10;99.90;;;;;;5056515;28;20288;-83
2022/06/01 04:44:22;;;;;;;;;;;10.20;99.90;;;;;;5056211;28;19913;-84
2022/06/01 04:46:47;;;;;;;;;;;10.00;99.90;;;;;;5074181;28;19958;-82
2022/06/01 04:49:13;;;;;;;;;;;10.10;99.90;;;;;;5074158;28;20004;-83
2022/06/01 04:51:39;;;;;;;;;;;10.20;99.90;;;;;;5074427;28;19936;-82
2022/06/01 04:54:06;;;;;;;;;;;10.00;99.90;;;;;;5074081;28;20372;-81
2022/06/01 04:56:31;;;;;;;;;;;9.90;99.90;;;;;;5074121;28;19923;-81
2022/06/01 04:58:57;;;;;;;;;;;9.80;99.90;;;;;;5056440;28;19909;-83
2022/06/01 05:01:23;;;;;;;;;;;9.90;99.90;;;;;;5074594;28;19913;-84
2022/06/01 05:03:49;;;;;;;;;;;9.80;99.90;;;;;;5056059;28;19961;-82
2022/06/01 05:06:15;;;;;;;;;;;10.00;99.90;;;;;;5055729;28;19908;-82
2022/06/01 05:08:40;;;;;;;;;;;10.20;99.90;;;;;;5055685;28;20361;-82
2022/06/01 05:11:06;;;;;;;;;;;10.30;99.90;;;;;;5073876;28;19923;-82
2022/06/01 05:13:32;;;;;;;;;;;10.40;99.90;;;;;;5055527;28;19995;-83
2022/06/01 05:15:58;;;;;;;;;;;10.40;99.90;;;;;;5073893;28;19952;-82
2022/06/01 05:18:24;;;;;;;;;;;10.40;99.90;;;;;;5077686;28;19977;-82
2022/06/01 05:20:50;;;;;;;;;;;10.40;99.90;;;;;;5077602;28;19909;-81
2022/06/01 05:23:17;;;;;;;;;;;10.50;99.90;;;;;;5077721;28;19912;-84
2022/06/01 05:25:44;;;;;;;;;;;10.70;99.90;;;;;;5077845;28;19917;-81
2022/06/01 05:28:10;;;;;;;;;;;10.70;99.90;;;;;;5059975;28;19912;-82
2022/06/01 05:30:36;;;;;;;;;;;11.10;99.90;;;;;;5059690;28;19913;-83
2022/06/01 05:33:02;;;;;;;;;;;11.20;99.90;;;;;;5059382;28;19918;-83
2022/06/01 05:35:27;;;;;;;;;;;11.20;99.90;;;;;;5077752;28;19965;-82
2022/06/01 05:37:53;;;;;;;;;;;11.30;99.90;;;;;;5076809;28;19929;-83
2022/06/01 05:40:18;;;;;;;;;;;11.50;99.90;;;;;;5077425;28;19913;-83
2022/06/01 05:42:44;;;;;;;;;;;11.50;99.90;;;;;;5077212;28;19908;-83
2022/06/01 05:45:10;;;;;;;;;;;11.30;99.90;;;;;;5077491;28;20010;-83
2022/06/01 05:47:36;;;;;;;;;;;11.40;99.90;;;;;;5059365;28;20331;-83
2022/06/01 05:50:02;;;;;;;;;;;11.60;99.90;;;;;;5077187;28;19955;-83
2022/06/01 05:52:28;;;;;;;;;;;11.70;99.90;;;;;;5077314;28;19912;-83
2022/06/01 05:54:54;;;;;;;;;;;11.60;99.90;;;;;;5076739;28;19978;-84
2022/06/01 05:57:19;;;;;;;;;;;11.80;99.90;;;;;;5076768;28;20094;-83
2022/06/01 05:59:45;;;;;;;;;;;11.90;99.90;;;;;;5058785;28;19908;-81
2022/06/01 06:02:11;;;;;;;;;;;12.10;99.90;;;;;;5059289;28;19909;-83
2022/06/01 06:04:37;;;;;;;;;;;12.20;99.90;;;;;;5077726;28;20411;-82
2022/06/01 06:07:03;;;;;;;;;;;12.40;99.90;;;;;;5076742;28;19909;-82
2022/06/01 06:09:28;;;;;;;;;;;12.40;99.90;;;;;;5076760;28;19915;-82
2022/06/01 06:11:54;;;;;;;;;;;12.50;99.90;;;;;;5076795;28;20017;-84
2022/06/01 06:14:21;;;;;;;;;;;12.60;99.90;;;;;;5059385;28;19920;-81
2022/06/01 06:16:46;;;;;;;;;;;12.60;99.90;;;;;;5077593;28;20288;-82
2022/06/01 06:19:13;;;;;;;;;;;12.60;99.90;;;;;;5077537;28;19908;-82
2022/06/01 06:21:39;;;;;;;;;;;12.50;99.90;;;;;;5077036;28;19972;-81
2022/06/01 06:24:07;;;;;;;;;;;12.70;99.90;;;;;;5058925;28;19947;-83
2022/06/01 06:26:32;;;;;;;;;;;12.90;99.90;;;;;;5076568;28;19908;-82
2022/06/01 06:29:00;;;;;;;;;;;13.10;99.90;;;;;;5075385;28;19909;-81
2022/06/01 06:31:25;;;;;;;;;;;13.30;99.90;;;;;;5076824;28;19908;-83
2022/06/01 06:33:51;;;;;;;;;;;13.50;99.90;;;;;;5076514;28;19965;-81
2022/06/01 06:36:16;;;;;;;;;;;13.60;99.90;;;;;;5076500;28;19986;-83
2022/06/01 06:38:42;;;;;;;;;;;13.70;99.90;;;;;;5076594;28;19973;-82
2022/06/01 06:41:10;;;;;;;;;;;13.90;99.90;;;;;;5076900;28;19908;-83
2022/06/01 06:43:36;;;;;;;;;;;13.90;99.90;;;;;;5076948;28;20371;-84
2022/06/01 06:46:09;;;;;;;;;;;14.10;99.90;;;;;;5076550;28;19908;-83
2022/06/01 06:48:35;;;;;;;;;;;14.10;99.90;;;;;;5076538;28;19909;-83
2022/06/01 06:51:01;;;;;;;;;;;14.30;99.90;;;;;;5058234;28;19931;-83
2022/06/01 06:53:28;;;;;;;;;;;14.50;99.90;;;;;;5076711;28;19909;-82
2022/06/01 06:55:54;;;;;;;;;;;14.60;99.90;;;;;;5076647;28;19916;-82
2022/06/01 06:58:20;;;;;;;;;;;14.70;99.90;;;;;;5058209;28;20277;-83
2022/06/01 07:00:45;;;;;;;;;;;14.80;99.90;;;;;;5076011;28;19935;-83
2022/06/01 07:03:12;;;;;;;;;;;15.00;99.90;;;;;;5076209;28;19909;-81
2022/06/01 07:08:22;;;;;;;;;;;15.40;99.90;;;;;;5076015;28;19967;-84
2022/06/01 07:10:48;;;;;;;;;;;15.40;99.90;;;;;;5057995;28;20372;-83
2022/06/01 07:13:13;;;;;;;;;;;15.40;99.90;;;;;;5076094;28;19979;-83
2022/06/01 07:15:39;;;;;;;;;;;15.30;99.90;;;;;;5057763;28;19912;-84
2022/06/01 07:18:05;;;;;;;;;;;15.40;99.90;;;;;;5057716;28;19957;-83
2022/06/01 07:20:31;;;;;;;;;;;15.80;99.90;;;;;;5076028;28;20368;-83
2022/06/01 07:22:57;;;;;;;;;;;15.80;99.90;;;;;;5057588;28;19908;-82
2022/06/01 07:25:23;;;;;;;;;;;16.00;99.90;;;;;;5057630;28;19916;-82
2022/06/01 07:27:49;;;;;;;;;;;16.00;99.90;;;;;;5057756;28;19958;-81
2022/06/01 07:30:15;;;;;;;;;;;16.30;99.90;;;;;;5075723;28;20311;-83
2022/06/01 07:32:45;;;;;;;;;;;16.60;99.90;;;;;;5075832;28;19908;-83
2022/06/01 07:35:10;;;;;;;;;;;16.80;99.90;;;;;;5075307;28;20003;-81
2022/06/01 07:43:07;;;;;;;;;;;24.50;76.90;;;;;;5075703;28;20421;-83
2022/06/01 07:45:34;;;;;;;;;;;26.50;72.00;;;;;;5075625;28;19952;-83
2022/06/01 07:48:00;;;;;;;;;;;27.40;64.50;;;;;;5075388;28;19914;-83
2022/06/01 07:50:25;;;;;;;;;;;27.80;60.00;;;;;;5075243;28;20347;-84
2022/06/01 07:52:51;;;;;;;;;;;27.80;58.50;;;;;;5075033;28;19909;-83
2022/06/01 07:55:16;;;;;;;;;;;27.30;57.70;;;;;;5075754;28;19913;-84
2022/06/01 07:57:42;;;;;;;;;;;27.60;56.80;;;;;;5074994;28;19915;-83
2022/06/01 08:00:08;;;;;;;;;;;27.50;55.30;;;;;;5056994;28;19908;-84
2022/06/01 08:02:33;;;;;;;;;;;27.10;55.70;;;;;;5074975;28;20265;-83
2022/06/01 08:04:59;;;;;;;;;;;27.30;53.60;;;;;;5074860;28;19908;-84
2022/06/01 08:07:24;;;;;;;;;;;27.80;54.70;;;;;;5074691;28;20049;-83
2022/06/01 08:09:50;;;;;;;;;;;27.30;54.60;;;;;;5074899;28;20387;-84
2022/06/01 08:14:59;;;;;;;;;;;27.70;57.00;;;;;;5074336;28;19920;-84
2022/06/01 08:17:25;;;;;;;;;;;28.10;55.40;;;;;;5074802;28;19909;-84
2022/06/01 08:19:51;;;;;;;;;;;26.90;54.20;;;;;;5074485;28;19908;-84
2022/06/01 08:22:16;;;;;;;;;;;26.60;55.70;;;;;;5074659;28;20280;-84
2022/06/01 08:24:42;;;;;;;;;;;26.60;53.40;;;;;;5074431;28;19955;-83
2022/06/01 08:27:08;;;;;;;;;;;26.70;54.40;;;;;;5074212;28;19915;-84
2022/06/01 08:29:35;;;;;;;;;;;26.40;55.10;;;;;;5074658;28;19920;-83
2022/06/01 08:32:00;;;;;;;;;;;25.20;54.20;;;;;;5074687;28;19940;-83
2022/06/01 08:34:26;;;;;;;;;;;25.40;54.70;;;;;;5073944;28;20005;-82
2022/06/01 08:36:51;;;;;;;;;;;25.00;55.80;;;;;;5073783;28;19969;-82
2022/06/01 08:39:17;;;;;;;;;;;25.10;56.60;;;;;;5074008;28;19908;-83
2022/06/01 08:41:43;;;;;;;;;;;25.30;55.90;;;;;;5055888;28;19966;-83
2022/06/01 08:44:19;;;;;;;;;;;25.90;55.30;;;;;;5073810;28;19909;-82
2022/06/01 08:46:45;;;;;;;;;;;26.20;54.60;;;;;;5073945;28;19955;-84
2022/06/01 08:49:19;;;;;;;;;;;26.70;55.30;;;;;;5073849;28;19913;-84
2022/06/01 08:51:45;;;;;;;;;;;26.20;53.20;;;;;;5073040;28;19999;-83
2022/06/01 08:54:11;;;;;;;;;;;25.60;53.60;;;;;;5073779;28;20015;-83
2022/06/01 08:56:36;;;;;;;;;;;25.60;55.60;;;;;;5074182;28;19954;-83
2022/06/01 08:59:14;;;;;;;;;;;26.50;53.90;;;;;;5073809;28;19908;-81
2022/06/01 09:01:44;;;;;;;;;;;26.30;54.20;;;;;;5074074;28;19908;-83
2022/06/01 09:04:29;;;;;;;;;;;25.60;55.00;;;;;;5073834;28;19909;-84
2022/06/01 09:07:16;;;;;;;;;;;25.60;55.70;;;;;;5074155;28;19909;-83
2022/06/01 09:09:42;;;;;;;;;;;26.40;54.00;;;;;;5073689;28;20007;-83
2022/06/01 09:12:07;;;;;;;;;;;27.40;54.00;;;;;;5073672;28;20349;-83
2022/06/01 09:14:34;;;;;;;;;;;27.60;52.50;;;;;;5073508;28;20312;-83
2022/06/01 09:17:02;;;;;;;;;;;27.60;51.70;;;;;;5073504;28;19948;-83
2022/06/01 09:22:37;;;;;;;;;;;27.80;51.60;;;;;;5073528;28;19908;-83
2022/06/01 09:25:02;;;;;;;;;;;28.10;51.10;;;;;;5073214;28;20335;-83
2022/06/01 09:27:48;;;;;;;;;;;28.00;51.00;;;;;;5073692;28;19909;-82
2022/06/01 09:30:25;;;;;;;;;;;28.60;50.80;;;;;;5073421;28;19913;-82
2022/06/01 09:33:03;;;;;;;;;;;28.50;49.60;;;;;;5055497;28;19954;-83
2022/06/01 09:35:29;;;;;;;;;;;28.00;48.90;;;;;;5073354;28;19913;-83
2022/06/01 09:37:55;;;;;;;;;;;28.60;49.90;;;;;;5072891;28;19973;-83
2022/06/01 09:40:24;;;;;;;;;;;28.90;48.20;;;;;;5055262;28;19908;-81
2022/06/01 09:42:51;;;;;;;;;;;29.60;47.80;;;;;;5073207;28;19908;-82
2022/06/01 09:45:24;;;;;;;;;;;29.40;48.10;;;;;;5073275;28;19958;-82
2022/06/01 09:47:52;;;;;;;;;;;28.40;47.70;;;;;;5054757;28;20198;-84
2022/06/01 09:50:38;;;;;;;;;;;29.40;47.70;;;;;;5073202;28;19909;-83
2022/06/01 09:53:21;;;;;;;;;;;28.70;49.50;;;;;;5073166;28;19963;-83
2022/06/01 09:55:54;;;;;;;;;;;28.90;48.10;;;;;;5072963;28;19919;-83
2022/06/01 10:06:05;;;;;;;;;;;28.90;48.40;;;;;;5073352;28;19962;-83
2022/06/01 10:07:06;;;;;;;;;;;29.50;49.10;;;;;;5076812;28;19916;-82
2022/06/01 10:09:33;;;;;;;;;;;31.30;48.10;;;;;;5076604;28;19962;-83
2022/06/01 10:12:14;;;;;;;;;;;32.00;47.30;;;;;;5076590;28;19999;-82
2022/06/01 10:14:40;;;;;;;;;;;32.70;45.40;;;;;;5076628;28;19912;-84
2022/06/01 10:17:26;;;;;;;;;;;31.20;45.70;;;;;;5076589;28;19909;-82
2022/06/01 10:20:00;;;;;;;;;;;31.10;45.90;;;;;;5076477;28;19913;-83
2022/06/01 10:22:34;;;;;;;;;;;31.30;45.70;;;;;;5076462;28;19914;-83
2022/06/01 10:25:13;;;;;;;;;;;29.80;46.60;;;;;;5076702;28;19931;-82
2022/06/01 10:27:41;;;;;;;;;;;29.10;47.50;;;;;;5076398;28;19909;-83
2022/06/01 10:30:12;;;;;;;;;;;30.60;47.80;;;;;;5076294;28;19909;-83
2022/06/01 10:32:53;;;;;;;;;;;32.30;45.70;;;;;;5076610;28;19912;-82
2022/06/01 10:35:34;;;;;;;;;;;33.90;44.60;;;;;;5076201;28;19913;-82
2022/06/01 10:38:03;;;;;;;;;;;34.70;43.50;;;;;;5075742;28;19970;-83
2022/06/01 10:40:47;;;;;;;;;;;34.10;42.70;;;;;;5076131;28;19912;-82
2022/06/01 10:43:20;;;;;;;;;;;32.50;42.70;;;;;;5076143;28;20054;-83
2022/06/01 10:45:52;;;;;;;;;;;31.00;44.30;;;;;;5057788;28;20376;-84
2022/06/01 10:48:22;;;;;;;;;;;29.90;45.40;;;;;;5076418;28;20372;-83
2022/06/01 10:50:48;;;;;;;;;;;28.80;46.50;;;;;;5076313;28;20483;-82
2022/06/01 10:53:23;;;;;;;;;;;28.20;47.80;;;;;;5075946;28;19950;-83
2022/06/01 10:55:49;;;;;;;;;;;30.40;46.70;;;;;;5058652;28;19924;-82
2022/06/01 10:58:22;;;;;;;;;;;32.30;44.10;;;;;;5075702;28;19909;-82
2022/06/01 11:01:03;;;;;;;;;;;33.50;43.30;;;;;;5076022;28;19908;-84
2022/06/01 11:03:32;;;;;;;;;;;33.20;41.00;;;;;;5075564;28;19908;-83
2022/06/01 11:06:05;;;;;;;;;;;30.80;44.00;;;;;;5075439;28;19991;-83
2022/06/01 11:08:51;;;;;;;;;;;31.40;44.20;;;;;;5075808;28;19951;-83
2022/06/01 11:11:27;;;;;;;;;;;32.10;44.20;;;;;;5075928;28;19909;-83
2022/06/01 11:13:57;;;;;;;;;;;32.50;42.20;;;;;;5056611;28;19912;-83
2022/06/01 11:16:31;;;;;;;;;;;32.80;42.30;;;;;;5075445;28;19995;-83
2022/06/01 11:19:05;;;;;;;;;;;33.10;40.30;;;;;;5075484;28;19908;-83
2022/06/01 11:21:50;;;;;;;;;;;35.00;40.80;;;;;;5075326;28;19909;-82
2022/06/01 11:24:24;;;;;;;;;;;35.70;39.70;;;;;;5075703;28;19908;-83
2022/06/01 11:26:59;;;;;;;;;;;35.00;39.20;;;;;;5075335;28;19915;-83
2022/06/01 11:29:36;;;;;;;;;;;34.80;40.00;;;;;;5075153;28;20327;-83
2022/06/01 11:32:04;;;;;;;;;;;36.40;39.60;;;;;;5075369;28;19912;-83
2022/06/01 11:34:35;;;;;;;;;;;36.20;38.40;;;;;;5075016;28;19912;-82
2022/06/01 11:37:07;;;;;;;;;;;36.80;38.90;;;;;;5074972;28;20375;-83
2022/06/01 11:39:39;;;;;;;;;;;36.30;37.70;;;;;;5074951;28;19912;-83
2022/06/01 11:42:13;;;;;;;;;;;36.20;38.20;;;;;;5074937;28;20002;-82
2022/06/01 11:44:42;;;;;;;;;;;36.30;38.00;;;;;;5074902;28;19909;-82
2022/06/01 11:47:16;;;;;;;;;;;37.10;38.20;;;;;;5074965;28;19909;-82
2022/06/01 11:49:44;;;;;;;;;;;37.10;37.90;;;;;;5074819;28;20015;-83
2022/06/01 11:52:16;;;;;;;;;;;36.60;37.70;;;;;;5074939;28;19954;-82
2022/06/01 11:54:42;;;;;;;;;;;34.70;38.20;;;;;;5074564;28;19935;-83
2022/06/01 11:57:08;;;;;;;;;;;32.80;39.70;;;;;;5074595;28;20296;-83
2022/06/01 11:59:45;;;;;;;;;;;32.50;40.60;;;;;;5074576;28;20269;-83
2022/06/01 12:02:19;;;;;;;;;;;32.30;40.70;;;;;;5056304;28;19908;-81
2022/06/01 12:05:08;;;;;;;;;;;32.10;41.20;;;;;;5074466;28;19909;-82
2022/06/01 12:07:39;;;;;;;;;;;32.90;41.00;;;;;;5074460;28;19913;-83
2022/06/01 12:10:07;;;;;;;;;;;34.40;39.60;;;;;;5074624;28;19952;-83
2022/06/01 12:12:32;;;;;;;;;;;35.10;39.30;;;;;;5074308;28;19909;-83
2022/06/01 12:15:01;;;;;;;;;;;35.10;38.90;;;;;;5074203;28;20288;-83
2022/06/01 12:17:28;;;;;;;;;;;35.30;39.00;;;;;;5074206;28;19909;-82
2022/06/01 12:20:11;;;;;;;;;;;35.80;38.40;;;;;;5074144;28;19916;-83
2022/06/01 12:28:54;;;;;;;;;;;36.40;37.90;;;;;;5073750;28;19919;-83
2022/06/01 12:31:19;;;;;;;;;;;36.00;36.40;;;;;;5074041;28;20292;-83
2022/06/01 12:34:03;;;;;;;;;;;36.20;37.80;;;;;;5073917;28;19908;-83
2022/06/01 12:36:42;;;;;;;;;;;36.90;37.20;;;;;;5073772;28;19921;-83
2022/06/01 12:39:11;;;;;;;;;;;38.40;37.10;;;;;;5073921;28;19962;-83
2022/06/01 12:41:38;;;;;;;;;;;37.70;35.70;;;;;;5073826;28;19981;-83
2022/06/01 12:44:06;;;;;;;;;;;37.80;36.70;;;;;;5074123;28;20467;-82
2022/06/01 12:46:38;;;;;;;;;;;38.20;36.10;;;;;;5073775;28;19912;-82
2022/06/01 12:49:26;;;;;;;;;;;36.80;36.40;;;;;;5073959;28;19940;-84
2022/06/01 12:51:56;;;;;;;;;;;37.50;36.60;;;;;;5073729;28;19944;-82
2022/06/01 12:54:42;;;;;;;;;;;36.80;36.20;;;;;;5055859;28;19919;-83
2022/06/01 12:57:12;;;;;;;;;;;34.80;37.30;;;;;;5073813;28;20007;-81
2022/06/01 12:59:38;;;;;;;;;;;33.50;38.30;;;;;;5073649;28;20391;-83
2022/06/01 13:02:05;;;;;;;;;;;32.40;39.20;;;;;;5055674;28;20356;-83
2022/06/01 13:04:31;;;;;;;;;;;33.00;39.20;;;;;;5073908;28;20262;-82
2022/06/01 13:06:57;;;;;;;;;;;33.80;38.60;;;;;;5073568;28;19996;-83
2022/06/01 13:09:27;;;;;;;;;;;34.80;38.30;;;;;;5074027;28;20373;-83
2022/06/01 13:12:02;;;;;;;;;;;35.50;37.20;;;;;;5073775;28;19915;-83
2022/06/01 13:14:29;;;;;;;;;;;36.10;37.00;;;;;;5073439;28;20391;-83
2022/06/01 13:16:58;;;;;;;;;;;34.90;37.70;;;;;;5073517;28;19999;-83
2022/06/01 13:19:26;;;;;;;;;;;34.30;38.60;;;;;;5073501;28;19913;-83
2022/06/01 13:21:51;;;;;;;;;;;35.30;37.70;;;;;;5073609;28;19961;-83
2022/06/01 13:24:18;;;;;;;;;;;35.00;36.30;;;;;;5073541;28;19909;-83
2022/06/01 13:26:49;;;;;;;;;;;34.70;37.00;;;;;;5073490;28;20066;-83
2022/06/01 13:29:16;;;;;;;;;;;34.70;37.30;;;;;;5073536;28;19919;-83
2022/06/01 13:31:43;;;;;;;;;;;35.20;38.30;;;;;;5073402;28;19909;-82
2022/06/01 13:34:16;;;;;;;;;;;36.60;37.80;;;;;;5073442;28;19995;-82
2022/06/01 13:36:42;;;;;;;;;;;37.60;36.80;;;;;;5073267;28;19920;-83
2022/06/01 13:39:09;;;;;;;;;;;37.70;36.70;;;;;;5058866;28;19915;-83
2022/06/01 13:41:37;;;;;;;;;;;37.70;36.60;;;;;;5059324;28;19909;-82
2022/06/01 13:44:09;;;;;;;;;;;37.20;35.90;;;;;;5077704;28;19958;-82
2022/06/01 13:46:42;;;;;;;;;;;35.40;36.30;;;;;;5059204;28;20368;-82
2022/06/01 13:49:13;;;;;;;;;;;35.00;37.50;;;;;;5077700;28;19954;-83
2022/06/01 13:51:44;;;;;;;;;;;35.60;36.80;;;;;;5077716;28;19939;-81
2022/06/01 13:54:36;;;;;;;;;;;35.30;37.00;;;;;;5077225;28;19965;-82
2022/06/01 13:57:02;;;;;;;;;;;34.90;37.70;;;;;;5073374;28;19908;-82
2022/06/01 13:59:28;;;;;;;;;;;35.60;37.70;;;;;;5076858;28;20258;-83
2022/06/01 14:01:56;;;;;;;;;;;34.10;37.20;;;;;;5076823;28;20021;-83
2022/06/01 14:04:30;;;;;;;;;;;33.40;38.10;;;;;;5076882;28;20004;-81
2022/06/01 14:07:01;;;;;;;;;;;32.40;41.10;;;;;;5076784;28;19908;-83
2022/06/01 14:09:28;;;;;;;;;;;33.60;41.30;;;;;;5077020;28;19958;-83
2022/06/01 14:11:54;;;;;;;;;;;34.90;40.80;;;;;;5076508;28;19913;-82
2022/06/01 14:14:26;;;;;;;;;;;34.80;39.70;;;;;;5076495;28;19965;-82
2022/06/01 14:16:53;;;;;;;;;;;34.80;39.90;;;;;;5076538;28;19916;-83
2022/06/01 14:19:18;;;;;;;;;;;35.80;39.60;;;;;;5076750;28;19909;-83
2022/06/01 14:21:44;;;;;;;;;;;36.00;39.50;;;;;;5076656;28;20395;-82
2022/06/01 14:24:10;;;;;;;;;;;35.10;39.70;;;;;;5076425;28;19958;-83
2022/06/01 14:29:20;;;;;;;;;;;32.30;41.90;;;;;;5075767;28;19936;-83
2022/06/01 14:31:45;;;;;;;;;;;32.50;43.30;;;;;;5076054;28;20372;-83
2022/06/01 14:34:12;;;;;;;;;;;33.80;42.40;;;;;;5075773;28;19913;-83
2022/06/01 14:36:38;;;;;;;;;;;34.80;41.40;;;;;;5075507;28;20357;-83
2022/06/01 14:39:04;;;;;;;;;;;35.10;40.60;;;;;;5075934;28;19943;-83
2022/06/01 14:41:31;;;;;;;;;;;35.70;40.00;;;;;;5075692;28;19931;-82
2022/06/01 14:43:58;;;;;;;;;;;36.60;39.50;;;;;;5057817;28;19908;-82
2022/06/01 14:46:24;;;;;;;;;;;38.60;39.70;;;;;;5075437;28;19923;-83
2022/06/01 14:48:50;;;;;;;;;;;39.50;38.90;;;;;;5074732;28;19908;-82
2022/06/01 14:51:17;;;;;;;;;;;40.00;38.10;;;;;;5075407;28;20003;-83
2022/06/01 14:53:44;;;;;;;;;;;38.90;38.40;;;;;;5075490;28;19909;-83
2022/06/01 14:56:09;;;;;;;;;;;38.00;38.50;;;;;;5073459;28;19996;-83
2022/06/01 14:58:35;;;;;;;;;;;37.50;38.60;;;;;;5075521;28;19944;-83
2022/06/01 15:01:03;;;;;;;;;;;36.40;39.30;;;;;;5075383;28;20341;-82